sensor_id;sensor_type;location;lat;lon;timestamp;pressure;altitude;pressure_sealevel;temperature;humidity
54321;BME280;40219;55.838;-4.266;2022-09-13T00:01:10;100898.75;;;15.86;41.02
54321;BME280;40219;55.838;-4.266;2022-09-13T00:03:37;100890.76;;;15.74;41.18
54321;BME280;40219;55.838;-4.266;2022-09-13T00:06:10;100892.94;;;15.58;41.43
54321;BME280;40219;55.838;-4.266;2022-09-13T00:08:38;100896.06;;;15.80;41.56
54321;BME280;40219;55.838;-4.266;2022-09-13T00:11:12;100901.56;;;15.72;41.74
54321;BME280;40219;55.838;-4.266;2022-09-13T00:13:41;100898.63;;;15.17;42.16
54321;BME280;40219;55.838;-4.266;2022-09-13T00:16:11;100897.74;;;15.25;42.43
54321;BME280;40219;55.838;-4.266;2022-09-13T00:18:40;100895.11;;;15.52;42.56
54321;BME280;40219;55.838;-4.266;2022-09-13T00:21:11;100895.00;;;15.48;42.50
54321;BME280;40219;55.838;-4.266;2022-09-13T00:23:45;100893.86;;;15.39;42.61
54321;BME280;40219;55.838;-4.266;2022-09-13T00:26:16;100894.90;;;15.36;42.65
54321;BME280;40219;55.838;-4.266;2022-09-13T00:28:44;100891.62;;;15.42;42.62
54321;BME280;40219;55.838;-4.266;2022-09-13T00:31:17;100896.51;;;15.38;42.61
54321;BME280;40219;55.838;-4.266;2022-09-13T00:33:44;100895.52;;;15.46;42.57
54321;BME280;40219;55.838;-4.266;2022-09-13T00:36:12;100895.52;;;15.48;42.50
54321;BME280;40219;55.838;-4.266;2022-09-13T00:38:45;100892.35;;;15.55;42.50
54321;BME280;40219;55.838;-4.266;2022-09-13T00:41:15;100895.44;;;15.65;42.45
54321;BME280;40219;55.838;-4.266;2022-09-13T00:43:46;100900.17;;;15.39;42.47
54321;BME280;40219;55.838;-4.266;2022-09-13T00:46:19;100903.72;;;15.61;42.49
54321;BME280;40219;55.838;-4.266;2022-09-13T00:48:49;100905.91;;;15.05;42.50
54321;BME280;40219;55.838;-4.266;2022-09-13T00:51:19;100902.25;;;15.38;42.75
54321;BME280;40219;55.838;-4.266;2022-09-13T00:53:48;100902.89;;;15.09;42.90
54321;BME280;40219;55.838;-4.266;2022-09-13T00:56:21;100904.69;;;15.24;43.15
54321;BME280;40219;55.838;-4.266;2022-09-13T00:58:53;100909.17;;;15.46;43.33
54321;BME280;40219;55.838;-4.266;2022-09-13T01:01:26;100904.52;;;15.26;43.30
54321;BME280;40219;55.838;-4.266;2022-09-13T01:03:55;100891.07;;;15.12;43.31
54321;BME280;40219;55.838;-4.266;2022-09-13T01:06:25;100891.92;;;15.22;43.36
54321;BME280;40219;55.838;-4.266;2022-09-13T01:08:54;100895.79;;;15.27;43.08
54321;BME280;40219;55.838;-4.266;2022-09-13T01:11:25;100896.19;;;15.26;43.06
54321;BME280;40219;55.838;-4.266;2022-09-13T01:13:55;100892.63;;;15.29;43.10
54321;BME280;40219;55.838;-4.266;2022-09-13T01:16:23;100885.53;;;15.27;43.12
54321;BME280;40219;55.838;-4.266;2022-09-13T01:18:51;100876.13;;;15.33;43.22
54321;BME280;40219;55.838;-4.266;2022-09-13T01:21:43;100875.34;;;15.29;43.06
54321;BME280;40219;55.838;-4.266;2022-09-13T01:24:47;100880.18;;;15.27;43.06
54321;BME280;40219;55.838;-4.266;2022-09-13T01:27:29;100887.52;;;15.23;43.15
54321;BME280;40219;55.838;-4.266;2022-09-13T01:30:04;100899.30;;;15.03;43.13
54321;BME280;40219;55.838;-4.266;2022-09-13T01:32:46;100906.19;;;14.99;43.12
54321;BME280;40219;55.838;-4.266;2022-09-13T01:35:23;100897.57;;;15.21;43.27
54321;BME280;40219;55.838;-4.266;2022-09-13T01:37:57;100899.44;;;15.50;43.18
54321;BME280;40219;55.838;-4.266;2022-09-13T01:40:45;100893.72;;;15.31;43.05
54321;BME280;40219;55.838;-4.266;2022-09-13T01:43:25;100898.06;;;15.17;43.10
54321;BME280;40219;55.838;-4.266;2022-09-13T01:45:58;100896.20;;;15.12;43.26
54321;BME280;40219;55.838;-4.266;2022-09-13T01:48:41;100900.87;;;15.08;43.47
54321;BME280;40219;55.838;-4.266;2022-09-13T01:51:19;100902.44;;;15.14;43.41
54321;BME280;40219;55.838;-4.266;2022-09-13T01:53:52;100900.42;;;15.07;43.40
54321;BME280;40219;55.838;-4.266;2022-09-13T01:56:30;100905.98;;;15.03;43.58
54321;BME280;40219;55.838;-4.266;2022-09-13T01:59:03;100914.37;;;14.85;43.69
54321;BME280;40219;55.838;-4.266;2022-09-13T02:01:37;100914.81;;;14.76;43.93
54321;BME280;40219;55.838;-4.266;2022-09-13T02:04:07;100917.05;;;14.74;44.07
54321;BME280;40219;55.838;-4.266;2022-09-13T02:06:40;100916.25;;;14.76;44.17
54321;BME280;40219;55.838;-4.266;2022-09-13T02:09:13;100911.68;;;14.98;43.95
54321;BME280;40219;55.838;-4.266;2022-09-13T02:11:43;100907.57;;;14.63;44.05
54321;BME280;40219;55.838;-4.266;2022-09-13T02:14:15;100908.94;;;14.80;44.03
54321;BME280;40219;55.838;-4.266;2022-09-13T02:16:48;100910.60;;;14.99;44.13
54321;BME280;40219;55.838;-4.266;2022-09-13T02:19:22;100913.34;;;14.62;44.02
54321;BME280;40219;55.838;-4.266;2022-09-13T02:21:55;100912.00;;;14.82;43.83
54321;BME280;40219;55.838;-4.266;2022-09-13T02:24:29;100909.22;;;14.69;44.02
54321;BME280;40219;55.838;-4.266;2022-09-13T02:27:00;100909.47;;;14.57;43.95
54321;BME280;40219;55.838;-4.266;2022-09-13T02:29:30;100905.67;;;14.84;43.82
54321;BME280;40219;55.838;-4.266;2022-09-13T02:32:04;100906.90;;;14.82;43.69
54321;BME280;40219;55.838;-4.266;2022-09-13T02:34:38;100901.71;;;14.89;43.69
54321;BME280;40219;55.838;-4.266;2022-09-13T02:37:08;100902.63;;;14.84;43.59
54321;BME280;40219;55.838;-4.266;2022-09-13T02:39:42;100907.10;;;14.47;43.84
54321;BME280;40219;55.838;-4.266;2022-09-13T02:42:16;100903.89;;;14.54;43.93
54321;BME280;40219;55.838;-4.266;2022-09-13T02:44:45;100900.65;;;14.63;43.66
54321;BME280;40219;55.838;-4.266;2022-09-13T02:47:25;100897.70;;;14.59;43.70
54321;BME280;40219;55.838;-4.266;2022-09-13T02:50:06;100900.38;;;14.61;43.58
54321;BME280;40219;55.838;-4.266;2022-09-13T02:52:41;100902.32;;;14.60;43.72
54321;BME280;40219;55.838;-4.266;2022-09-13T02:55:17;100904.91;;;14.94;43.62
54321;BME280;40219;55.838;-4.266;2022-09-13T02:57:56;100903.35;;;14.92;43.54
54321;BME280;40219;55.838;-4.266;2022-09-13T03:00:26;100899.41;;;14.72;43.51
54321;BME280;40219;55.838;-4.266;2022-09-13T03:02:55;100900.58;;;14.67;43.43
54321;BME280;40219;55.838;-4.266;2022-09-13T03:05:24;100897.93;;;14.69;43.38
54321;BME280;40219;55.838;-4.266;2022-09-13T03:07:51;100892.00;;;14.66;43.39
54321;BME280;40219;55.838;-4.266;2022-09-13T03:10:20;100897.03;;;14.74;43.52
54321;BME280;40219;55.838;-4.266;2022-09-13T03:13:12;100898.45;;;14.50;43.66
54321;BME280;40219;55.838;-4.266;2022-09-13T03:15:55;100909.84;;;14.44;43.69
54321;BME280;40219;55.838;-4.266;2022-09-13T03:18:36;100912.08;;;14.55;43.84
54321;BME280;40219;55.838;-4.266;2022-09-13T03:21:14;100914.50;;;14.31;43.82
54321;BME280;40219;55.838;-4.266;2022-09-13T03:23:52;100910.78;;;14.38;43.97
54321;BME280;40219;55.838;-4.266;2022-09-13T03:26:31;100909.54;;;14.41;44.04
54321;BME280;40219;55.838;-4.266;2022-09-13T03:29:12;100906.19;;;14.22;43.97
54321;BME280;40219;55.838;-4.266;2022-09-13T03:31:48;100909.20;;;14.23;44.01
54321;BME280;40219;55.838;-4.266;2022-09-13T03:34:24;100911.51;;;14.51;44.01
54321;BME280;40219;55.838;-4.266;2022-09-13T03:36:56;100913.88;;;14.29;43.83
54321;BME280;40219;55.838;-4.266;2022-09-13T03:39:31;100912.74;;;14.53;43.89
54321;BME280;40219;55.838;-4.266;2022-09-13T03:42:05;100911.58;;;14.34;43.81
54321;BME280;40219;55.838;-4.266;2022-09-13T03:44:37;100906.92;;;14.61;43.77
54321;BME280;40219;55.838;-4.266;2022-09-13T03:47:07;100903.66;;;14.44;43.59
54321;BME280;40219;55.838;-4.266;2022-09-13T03:49:36;100897.59;;;14.45;43.37
54321;BME280;40219;55.838;-4.266;2022-09-13T03:52:05;100899.54;;;14.56;43.57
54321;BME280;40219;55.838;-4.266;2022-09-13T03:54:36;100904.89;;;14.54;43.60
54321;BME280;40219;55.838;-4.266;2022-09-13T03:57:08;100904.31;;;14.55;43.44
54321;BME280;40219;55.838;-4.266;2022-09-13T03:59:38;100907.04;;;14.80;43.45
54321;BME280;40219;55.838;-4.266;2022-09-13T04:02:06;100911.25;;;14.60;43.54
54321;BME280;40219;55.838;-4.266;2022-09-13T04:04:34;100907.06;;;14.91;43.33
54321;BME280;40219;55.838;-4.266;2022-09-13T04:07:02;100900.13;;;14.66;43.30
54321;BME280;40219;55.838;-4.266;2022-09-13T04:09:30;100899.61;;;14.65;43.27
54321;BME280;40219;55.838;-4.266;2022-09-13T04:11:57;100908.89;;;14.62;43.30
54321;BME280;40219;55.838;-4.266;2022-09-13T04:14:24;100913.07;;;14.64;43.28
54321;BME280;40219;55.838;-4.266;2022-09-13T04:16:52;100915.59;;;14.57;43.17
54321;BME280;40219;55.838;-4.266;2022-09-13T04:19:20;100919.96;;;14.60;43.37
54321;BME280;40219;55.838;-4.266;2022-09-13T04:21:48;100923.08;;;14.31;43.26
54321;BME280;40219;55.838;-4.266;2022-09-13T04:24:15;100924.01;;;14.61;43.37
54321;BME280;40219;55.838;-4.266;2022-09-13T04:26:44;100918.59;;;14.58;43.19
54321;BME280;40219;55.838;-4.266;2022-09-13T04:29:11;100917.44;;;14.77;43.29
54321;BME280;40219;55.838;-4.266;2022-09-13T04:31:39;100918.52;;;14.56;43.26
54321;BME280;40219;55.838;-4.266;2022-09-13T04:34:07;100918.01;;;14.54;43.30
54321;BME280;40219;55.838;-4.266;2022-09-13T04:36:35;100917.38;;;14.54;43.29
54321;BME280;40219;55.838;-4.266;2022-09-13T04:39:03;100911.50;;;14.85;43.38
54321;BME280;40219;55.838;-4.266;2022-09-13T04:41:31;100912.18;;;14.77;43.16
54321;BME280;40219;55.838;-4.266;2022-09-13T04:43:58;100913.94;;;14.27;43.34
54321;BME280;40219;55.838;-4.266;2022-09-13T04:46:26;100913.94;;;14.28;43.37
54321;BME280;40219;55.838;-4.266;2022-09-13T04:48:53;100911.37;;;14.21;43.30
54321;BME280;40219;55.838;-4.266;2022-09-13T04:51:21;100910.42;;;14.21;43.31
54321;BME280;40219;55.838;-4.266;2022-09-13T04:53:51;100908.74;;;14.20;43.31
54321;BME280;40219;55.838;-4.266;2022-09-13T04:56:19;100906.11;;;14.73;43.30
54321;BME280;40219;55.838;-4.266;2022-09-13T04:58:46;100911.27;;;14.22;43.20
54321;BME280;40219;55.838;-4.266;2022-09-13T05:01:14;100909.19;;;14.20;43.22
54321;BME280;40219;55.838;-4.266;2022-09-13T05:03:42;100907.15;;;14.30;43.32
54321;BME280;40219;55.838;-4.266;2022-09-13T05:06:11;100912.15;;;14.29;43.37
54321;BME280;40219;55.838;-4.266;2022-09-13T05:08:39;100909.44;;;14.32;43.35
54321;BME280;40219;55.838;-4.266;2022-09-13T05:11:07;100914.91;;;14.11;43.20
54321;BME280;40219;55.838;-4.266;2022-09-13T05:13:35;100914.13;;;14.64;43.20
54321;BME280;40219;55.838;-4.266;2022-09-13T05:16:05;100913.94;;;14.45;43.15
54321;BME280;40219;55.838;-4.266;2022-09-13T05:18:35;100907.26;;;14.73;42.90
54321;BME280;40219;55.838;-4.266;2022-09-13T05:21:04;100903.01;;;14.39;42.76
54321;BME280;40219;55.838;-4.266;2022-09-13T05:23:31;100909.78;;;14.34;42.72
54321;BME280;40219;55.838;-4.266;2022-09-13T05:26:00;100915.57;;;14.60;42.78
54321;BME280;40219;55.838;-4.266;2022-09-13T05:28:29;100923.97;;;14.26;42.77
54321;BME280;40219;55.838;-4.266;2022-09-13T05:30:58;100931.31;;;14.12;42.87
54321;BME280;40219;55.838;-4.266;2022-09-13T05:33:29;100930.04;;;14.18;42.93
54321;BME280;40219;55.838;-4.266;2022-09-13T05:35:56;100935.91;;;14.44;42.91
54321;BME280;40219;55.838;-4.266;2022-09-13T05:38:24;100936.65;;;14.14;42.94
54321;BME280;40219;55.838;-4.266;2022-09-13T05:40:53;100939.66;;;14.35;42.98
54321;BME280;40219;55.838;-4.266;2022-09-13T05:43:21;100945.91;;;14.01;43.10
54321;BME280;40219;55.838;-4.266;2022-09-13T05:45:48;100946.39;;;13.74;43.20
54321;BME280;40219;55.838;-4.266;2022-09-13T05:48:16;100943.20;;;13.96;43.23
54321;BME280;40219;55.838;-4.266;2022-09-13T05:50:44;100944.87;;;14.16;43.16
54321;BME280;40219;55.838;-4.266;2022-09-13T05:53:12;100948.91;;;14.12;43.17
54321;BME280;40219;55.838;-4.266;2022-09-13T05:55:39;100953.16;;;14.11;43.20
54321;BME280;40219;55.838;-4.266;2022-09-13T05:58:06;100954.16;;;13.93;43.22
54321;BME280;40219;55.838;-4.266;2022-09-13T06:00:33;100952.89;;;13.91;42.99
54321;BME280;40219;55.838;-4.266;2022-09-13T06:03:00;100948.82;;;14.20;42.88
54321;BME280;40219;55.838;-4.266;2022-09-13T06:05:28;100944.65;;;13.79;42.90
54321;BME280;40219;55.838;-4.266;2022-09-13T06:07:56;100945.68;;;14.07;42.96
54321;BME280;40219;55.838;-4.266;2022-09-13T06:10:24;100948.25;;;14.07;43.05
54321;BME280;40219;55.838;-4.266;2022-09-13T06:12:51;100950.64;;;13.85;42.92
54321;BME280;40219;55.838;-4.266;2022-09-13T06:15:20;100953.43;;;14.31;42.90
54321;BME280;40219;55.838;-4.266;2022-09-13T06:17:48;100949.47;;;14.18;42.50
54321;BME280;40219;55.838;-4.266;2022-09-13T06:20:16;100943.22;;;14.47;42.34
54321;BME280;40219;55.838;-4.266;2022-09-13T06:22:45;100940.28;;;14.61;42.41
54321;BME280;40219;55.838;-4.266;2022-09-13T06:25:13;100937.76;;;14.72;42.30
54321;BME280;40219;55.838;-4.266;2022-09-13T06:27:41;100941.08;;;14.54;42.22
54321;BME280;40219;55.838;-4.266;2022-09-13T06:30:09;100945.88;;;14.68;42.11
54321;BME280;40219;55.838;-4.266;2022-09-13T06:32:35;100948.76;;;14.58;41.94
54321;BME280;40219;55.838;-4.266;2022-09-13T06:35:08;100953.03;;;14.66;41.76
54321;BME280;40219;55.838;-4.266;2022-09-13T06:37:42;100959.42;;;15.00;41.55
54321;BME280;40219;55.838;-4.266;2022-09-13T06:40:10;100964.77;;;15.04;41.45
54321;BME280;40219;55.838;-4.266;2022-09-13T06:42:37;100967.89;;;14.75;41.44
54321;BME280;40219;55.838;-4.266;2022-09-13T06:45:06;100970.30;;;14.71;41.52
54321;BME280;40219;55.838;-4.266;2022-09-13T06:47:34;100968.13;;;14.97;41.56
54321;BME280;40219;55.838;-4.266;2022-09-13T06:50:01;100964.86;;;14.96;41.58
54321;BME280;40219;55.838;-4.266;2022-09-13T06:52:29;100963.56;;;14.68;41.63
54321;BME280;40219;55.838;-4.266;2022-09-13T06:54:57;100967.43;;;14.97;41.62
54321;BME280;40219;55.838;-4.266;2022-09-13T06:57:25;100964.73;;;14.85;41.71
54321;BME280;40219;55.838;-4.266;2022-09-13T06:59:52;100967.33;;;14.93;41.86
54321;BME280;40219;55.838;-4.266;2022-09-13T07:02:19;100965.68;;;14.64;41.86
54321;BME280;40219;55.838;-4.266;2022-09-13T07:04:47;100960.41;;;14.77;42.01
54321;BME280;40219;55.838;-4.266;2022-09-13T07:07:14;100960.54;;;15.01;41.87
54321;BME280;40219;55.838;-4.266;2022-09-13T07:09:42;100967.18;;;15.24;41.57
54321;BME280;40219;55.838;-4.266;2022-09-13T07:12:10;100970.36;;;15.37;41.42
54321;BME280;40219;55.838;-4.266;2022-09-13T07:14:37;100973.76;;;15.72;41.22
54321;BME280;40219;55.838;-4.266;2022-09-13T07:17:05;100975.91;;;15.64;41.09
54321;BME280;40219;55.838;-4.266;2022-09-13T07:19:33;100977.73;;;15.69;40.99
54321;BME280;40219;55.838;-4.266;2022-09-13T07:22:00;100979.06;;;15.60;41.01
54321;BME280;40219;55.838;-4.266;2022-09-13T07:24:27;100981.65;;;15.44;40.89
54321;BME280;40219;55.838;-4.266;2022-09-13T07:26:55;100982.31;;;15.88;40.68
54321;BME280;40219;55.838;-4.266;2022-09-13T07:29:22;100978.71;;;16.07;40.42
54321;BME280;40219;55.838;-4.266;2022-09-13T07:31:52;100984.81;;;15.93;40.24
54321;BME280;40219;55.838;-4.266;2022-09-13T07:34:21;100984.07;;;16.04;40.08
54321;BME280;40219;55.838;-4.266;2022-09-13T07:36:48;100983.85;;;16.20;39.89
54321;BME280;40219;55.838;-4.266;2022-09-13T07:39:17;100981.68;;;16.29;39.73
54321;BME280;40219;55.838;-4.266;2022-09-13T07:41:44;100975.43;;;16.41;39.44
54321;BME280;40219;55.838;-4.266;2022-09-13T07:44:12;100963.79;;;16.32;39.32
54321;BME280;40219;55.838;-4.266;2022-09-13T07:46:41;100961.22;;;16.66;39.30
54321;BME280;40219;55.838;-4.266;2022-09-13T07:49:09;100959.37;;;16.32;39.18
54321;BME280;40219;55.838;-4.266;2022-09-13T07:51:39;100963.49;;;16.63;38.88
54321;BME280;40219;55.838;-4.266;2022-09-13T07:54:10;100964.75;;;16.44;38.94
54321;BME280;40219;55.838;-4.266;2022-09-13T07:56:39;100967.85;;;17.10;38.79
54321;BME280;40219;55.838;-4.266;2022-09-13T07:59:11;100970.85;;;17.19;38.31
54321;BME280;40219;55.838;-4.266;2022-09-13T08:01:40;100963.53;;;17.05;38.02
54321;BME280;40219;55.838;-4.266;2022-09-13T08:04:10;100960.37;;;16.92;38.02
54321;BME280;40219;55.838;-4.266;2022-09-13T08:06:39;100959.16;;;17.06;37.82
54321;BME280;40219;55.838;-4.266;2022-09-13T08:09:08;100955.97;;;17.50;37.88
54321;BME280;40219;55.838;-4.266;2022-09-13T08:11:37;100958.71;;;17.08;37.65
54321;BME280;40219;55.838;-4.266;2022-09-13T08:14:06;100963.77;;;17.21;37.50
54321;BME280;40219;55.838;-4.266;2022-09-13T08:16:34;100960.42;;;17.56;37.22
54321;BME280;40219;55.838;-4.266;2022-09-13T08:19:03;100953.93;;;17.21;37.17
54321;BME280;40219;55.838;-4.266;2022-09-13T08:21:33;100957.21;;;17.10;37.16
54321;BME280;40219;55.838;-4.266;2022-09-13T08:24:01;100952.06;;;17.35;37.09
54321;BME280;40219;55.838;-4.266;2022-09-13T08:26:29;100953.06;;;17.14;37.04
54321;BME280;40219;55.838;-4.266;2022-09-13T08:28:58;100960.79;;;17.22;36.83
54321;BME280;40219;55.838;-4.266;2022-09-13T08:31:26;100955.56;;;17.32;36.88
54321;BME280;40219;55.838;-4.266;2022-09-13T08:33:53;100954.75;;;16.88;36.76
54321;BME280;40219;55.838;-4.266;2022-09-13T08:36:21;100951.11;;;17.20;37.09
54321;BME280;40219;55.838;-4.266;2022-09-13T08:38:50;100949.94;;;17.08;36.93
54321;BME280;40219;55.838;-4.266;2022-09-13T08:41:32;100943.65;;;17.14;37.08
54321;BME280;40219;55.838;-4.266;2022-09-13T08:44:09;100941.65;;;17.09;36.89
54321;BME280;40219;55.838;-4.266;2022-09-13T08:46:42;100942.88;;;17.08;36.86
54321;BME280;40219;55.838;-4.266;2022-09-13T08:49:16;100947.42;;;17.04;36.80
54321;BME280;40219;55.838;-4.266;2022-09-13T08:51:48;100952.75;;;17.64;36.49
54321;BME280;40219;55.838;-4.266;2022-09-13T08:54:18;100955.29;;;17.46;36.23
54321;BME280;40219;55.838;-4.266;2022-09-13T08:56:52;100949.13;;;17.67;36.22
54321;BME280;40219;55.838;-4.266;2022-09-13T08:59:40;100965.52;;;17.57;35.96
54321;BME280;40219;55.838;-4.266;2022-09-13T09:02:24;100949.14;;;17.38;36.14
54321;BME280;40219;55.838;-4.266;2022-09-13T09:05:02;100953.18;;;17.64;36.09
54321;BME280;40219;55.838;-4.266;2022-09-13T09:07:35;100955.08;;;17.54;36.12
54321;BME280;40219;55.838;-4.266;2022-09-13T09:10:06;100954.20;;;18.16;35.80
54321;BME280;40219;55.838;-4.266;2022-09-13T09:12:42;100964.72;;;17.27;35.87
54321;BME280;40219;55.838;-4.266;2022-09-13T09:15:16;100962.45;;;17.72;35.91
54321;BME280;40219;55.838;-4.266;2022-09-13T09:17:52;100963.64;;;17.87;35.90
54321;BME280;40219;55.838;-4.266;2022-09-13T09:20:26;100960.20;;;18.46;35.51
54321;BME280;40219;55.838;-4.266;2022-09-13T09:22:55;100956.63;;;18.26;35.14
54321;BME280;40219;55.838;-4.266;2022-09-13T09:25:25;100961.55;;;18.98;34.66
54321;BME280;40219;55.838;-4.266;2022-09-13T09:27:54;100965.74;;;18.49;34.54
54321;BME280;40219;55.838;-4.266;2022-09-13T09:30:22;100963.42;;;18.85;34.16
54321;BME280;40219;55.838;-4.266;2022-09-13T09:33:14;100969.08;;;18.52;34.25
54321;BME280;40219;55.838;-4.266;2022-09-13T09:35:50;100966.32;;;18.69;34.04
54321;BME280;40219;55.838;-4.266;2022-09-13T09:38:31;100964.96;;;18.56;34.07
54321;BME280;40219;55.838;-4.266;2022-09-13T09:41:02;100964.97;;;18.78;34.16
54321;BME280;40219;55.838;-4.266;2022-09-13T09:43:34;100956.87;;;18.58;33.61
54321;BME280;40219;55.838;-4.266;2022-09-13T09:46:05;100968.05;;;18.50;33.74
54321;BME280;40219;55.838;-4.266;2022-09-13T09:48:40;100961.26;;;18.17;33.77
54321;BME280;40219;55.838;-4.266;2022-09-13T09:51:11;100959.62;;;18.25;34.33
54321;BME280;40219;55.838;-4.266;2022-09-13T09:53:44;100965.21;;;18.22;33.68
54321;BME280;40219;55.838;-4.266;2022-09-13T09:56:21;100970.43;;;17.99;34.18
54321;BME280;40219;55.838;-4.266;2022-09-13T09:58:51;100962.84;;;18.35;33.89
54321;BME280;40219;55.838;-4.266;2022-09-13T10:01:22;100961.62;;;18.37;33.70
54321;BME280;40219;55.838;-4.266;2022-09-13T10:03:54;100956.87;;;17.89;33.45
54321;BME280;40219;55.838;-4.266;2022-09-13T10:06:25;100950.69;;;18.45;33.04
54321;BME280;40219;55.838;-4.266;2022-09-13T10:08:59;100947.13;;;18.74;32.71
54321;BME280;40219;55.838;-4.266;2022-09-13T10:11:45;100955.13;;;18.74;32.33
54321;BME280;40219;55.838;-4.266;2022-09-13T10:14:35;100951.87;;;19.10;32.15
54321;BME280;40219;55.838;-4.266;2022-09-13T10:17:13;100954.16;;;18.73;32.47
54321;BME280;40219;55.838;-4.266;2022-09-13T10:19:51;100954.53;;;19.30;32.21
54321;BME280;40219;55.838;-4.266;2022-09-13T10:22:20;100944.02;;;19.20;32.13
54321;BME280;40219;55.838;-4.266;2022-09-13T10:24:48;100945.86;;;19.03;31.89
54321;BME280;40219;55.838;-4.266;2022-09-13T10:27:21;100951.52;;;19.10;31.99
54321;BME280;40219;55.838;-4.266;2022-09-13T10:29:52;100963.16;;;19.46;32.24
54321;BME280;40219;55.838;-4.266;2022-09-13T10:32:21;100964.35;;;19.36;31.91
54321;BME280;40219;55.838;-4.266;2022-09-13T10:34:50;100966.17;;;19.36;32.22
54321;BME280;40219;55.838;-4.266;2022-09-13T10:37:21;100971.13;;;19.28;32.19
54321;BME280;40219;55.838;-4.266;2022-09-13T10:39:56;100969.71;;;19.18;32.22
54321;BME280;40219;55.838;-4.266;2022-09-13T10:42:27;100978.83;;;19.51;32.16
54321;BME280;40219;55.838;-4.266;2022-09-13T10:44:56;100976.55;;;19.34;32.35
54321;BME280;40219;55.838;-4.266;2022-09-13T10:47:28;100975.53;;;19.28;32.27
54321;BME280;40219;55.838;-4.266;2022-09-13T10:49:58;100980.89;;;19.02;31.60
54321;BME280;40219;55.838;-4.266;2022-09-13T10:52:42;100985.87;;;19.20;31.61
54321;BME280;40219;55.838;-4.266;2022-09-13T10:55:30;100979.96;;;19.38;32.13
54321;BME280;40219;55.838;-4.266;2022-09-13T10:58:17;100980.55;;;19.18;32.19
54321;BME280;40219;55.838;-4.266;2022-09-13T11:00:58;100994.04;;;19.27;32.18
54321;BME280;40219;55.838;-4.266;2022-09-13T11:03:43;100995.07;;;19.22;32.25
54321;BME280;40219;55.838;-4.266;2022-09-13T11:06:19;100984.22;;;19.34;32.48
54321;BME280;40219;55.838;-4.266;2022-09-13T11:08:56;100991.87;;;19.85;32.14
54321;BME280;40219;55.838;-4.266;2022-09-13T11:11:32;100985.39;;;19.79;32.09
54321;BME280;40219;55.838;-4.266;2022-09-13T11:14:16;100981.36;;;20.08;31.27
54321;BME280;40219;55.838;-4.266;2022-09-13T11:16:56;100975.62;;;19.98;31.16
54321;BME280;40219;55.838;-4.266;2022-09-13T11:20:10;100978.20;;;19.92;31.57
54321;BME280;40219;55.838;-4.266;2022-09-13T11:23:10;100980.67;;;20.60;30.79
54321;BME280;40219;55.838;-4.266;2022-09-13T11:25:54;100979.21;;;21.17;30.29
54321;BME280;40219;55.838;-4.266;2022-09-13T11:28:31;100970.30;;;21.21;29.42
54321;BME280;40219;55.838;-4.266;2022-09-13T11:31:17;100968.67;;;21.25;29.22
54321;BME280;40219;55.838;-4.266;2022-09-13T11:33:59;100970.63;;;21.61;28.73
54321;BME280;40219;55.838;-4.266;2022-09-13T11:36:56;100970.64;;;21.75;28.95
54321;BME280;40219;55.838;-4.266;2022-09-13T11:39:31;100964.47;;;22.08;28.16
54321;BME280;40219;55.838;-4.266;2022-09-13T11:42:12;100959.39;;;21.45;28.90
54321;BME280;40219;55.838;-4.266;2022-09-13T11:44:58;100950.93;;;20.91;29.40
54321;BME280;40219;55.838;-4.266;2022-09-13T11:47:42;100951.03;;;20.54;29.43
54321;BME280;40219;55.838;-4.266;2022-09-13T11:50:24;100948.99;;;19.92;30.09
54321;BME280;40219;55.838;-4.266;2022-09-13T11:53:04;100935.56;;;19.81;30.00
54321;BME280;40219;55.838;-4.266;2022-09-13T11:55:38;100947.07;;;19.51;29.87
54321;BME280;40219;55.838;-4.266;2022-09-13T11:58:12;100932.54;;;20.08;30.30
54321;BME280;40219;55.838;-4.266;2022-09-13T12:00:44;100939.69;;;20.04;30.22
54321;BME280;40219;55.838;-4.266;2022-09-13T12:03:20;100938.24;;;19.60;30.29
54321;BME280;40219;55.838;-4.266;2022-09-13T12:05:52;100940.64;;;19.70;30.37
54321;BME280;40219;55.838;-4.266;2022-09-13T12:08:24;100948.68;;;19.96;30.35
54321;BME280;40219;55.838;-4.266;2022-09-13T12:10:56;100938.00;;;20.07;30.10
54321;BME280;40219;55.838;-4.266;2022-09-13T12:13:26;100934.39;;;20.17;30.32
54321;BME280;40219;55.838;-4.266;2022-09-13T12:15:59;100936.12;;;20.34;30.36
54321;BME280;40219;55.838;-4.266;2022-09-13T12:18:29;100939.80;;;20.24;29.83
54321;BME280;40219;55.838;-4.266;2022-09-13T12:21:02;100936.18;;;20.50;29.51
54321;BME280;40219;55.838;-4.266;2022-09-13T12:23:35;100943.03;;;20.65;29.55
54321;BME280;40219;55.838;-4.266;2022-09-13T12:26:07;100941.96;;;20.63;29.35
54321;BME280;40219;55.838;-4.266;2022-09-13T12:28:41;100937.53;;;20.07;29.69
54321;BME280;40219;55.838;-4.266;2022-09-13T12:31:13;100941.89;;;20.08;29.99
54321;BME280;40219;55.838;-4.266;2022-09-13T12:33:42;100936.44;;;19.95;30.26
54321;BME280;40219;55.838;-4.266;2022-09-13T12:36:25;100932.52;;;19.95;30.21
54321;BME280;40219;55.838;-4.266;2022-09-13T12:39:14;100947.00;;;20.03;30.55
54321;BME280;40219;55.838;-4.266;2022-09-13T12:41:55;100947.80;;;20.24;30.39
54321;BME280;40219;55.838;-4.266;2022-09-13T12:44:38;100932.62;;;19.98;30.19
54321;BME280;40219;55.838;-4.266;2022-09-13T12:49:31;100943.42;;;20.61;29.60
54321;BME280;40219;55.838;-4.266;2022-09-13T12:52:12;100931.97;;;20.05;30.03
54321;BME280;40219;55.838;-4.266;2022-09-13T12:54:55;100927.89;;;20.23;29.71
54321;BME280;40219;55.838;-4.266;2022-09-13T12:57:34;100929.74;;;20.16;30.15
54321;BME280;40219;55.838;-4.266;2022-09-13T13:00:12;100933.16;;;20.42;30.13
54321;BME280;40219;55.838;-4.266;2022-09-13T13:02:52;100918.40;;;20.03;30.24
54321;BME280;40219;55.838;-4.266;2022-09-13T13:05:27;100918.11;;;19.67;30.62
54321;BME280;40219;55.838;-4.266;2022-09-13T13:07:57;100916.77;;;19.62;30.61
54321;BME280;40219;55.838;-4.266;2022-09-13T13:10:28;100908.63;;;20.31;30.83